Terminal Aerodrome Forecast
Issued by NWS Jacksonville, FL

Current Version | Previous Version | Text Only | Print | Product List | Glossary On
Versions: 1 2 3 4 5 6 7 8 9 10 11 12 13 14 15 16 17 18 19
961
FTUS42 KJAX 291017 AAC
TAFGNV
TAF AMD
KGNV 291017Z 2910/3006 00000KT 2SM BR SCT005
     FM291100 00000KT 1/2SM FG BKN002
     FM291400 28006KT P6SM SCT050
     FM300400 00000KT P6SM FEW060=

USA.gov is the U.S. government's official web portal to all federal, state and local government web resources and services.